createdAt,value
2018-04-25T00:00:12.605Z,23.74
2018-04-25T00:00:51.589Z,23.77
2018-04-25T00:02:12.624Z,23.71
2018-04-25T00:02:51.607Z,23.68
2018-04-25T00:03:51.598Z,23.72
2018-04-25T00:05:12.615Z,23.71
2018-04-25T00:05:51.606Z,23.63
2018-04-25T00:07:12.618Z,23.71
2018-04-25T00:07:51.600Z,23.67
2018-04-25T00:08:51.559Z,23.69
2018-04-25T00:10:12.589Z,23.71
2018-04-25T00:10:51.547Z,23.68
2018-04-25T00:12:12.569Z,23.60
2018-04-25T00:12:51.563Z,23.59
2018-04-25T00:13:51.544Z,23.71
2018-04-25T00:15:12.580Z,23.67
2018-04-25T00:15:51.603Z,23.71
2018-04-25T00:17:12.577Z,23.69
2018-04-25T00:17:51.532Z,23.71
2018-04-25T00:18:51.569Z,23.71
2018-04-25T00:20:12.563Z,23.62
2018-04-25T00:20:51.513Z,23.57
2018-04-25T00:22:12.533Z,23.63
2018-04-25T00:22:51.518Z,23.68
2018-04-25T00:23:51.505Z,23.67
2018-04-25T00:25:12.500Z,23.64
2018-04-25T00:25:51.518Z,23.59
2018-04-25T00:27:12.518Z,23.67
2018-04-25T00:27:51.523Z,23.64
2018-04-25T00:28:51.515Z,23.64
2018-04-25T00:30:12.495Z,23.60
2018-04-25T00:30:51.490Z,23.62
2018-04-25T00:32:12.525Z,23.69
2018-04-25T00:32:51.469Z,23.60
2018-04-25T00:33:51.478Z,23.67
2018-04-25T00:35:12.513Z,23.67
2018-04-25T00:35:51.478Z,23.59
2018-04-25T00:37:12.500Z,23.64
2018-04-25T00:37:51.471Z,23.64
2018-04-25T00:38:51.487Z,23.60
2018-04-25T00:40:12.478Z,23.63
2018-04-25T00:40:51.479Z,23.69
2018-04-25T00:42:12.469Z,23.67
2018-04-25T00:42:51.456Z,23.63
2018-04-25T00:43:51.441Z,23.62
2018-04-25T00:45:12.438Z,23.59
2018-04-25T00:45:51.439Z,23.62
2018-04-25T00:47:12.422Z,23.67
2018-04-25T00:47:51.436Z,23.62
2018-04-25T00:48:51.419Z,23.67
2018-04-25T00:50:12.418Z,23.63
2018-04-25T00:50:51.429Z,23.59
2018-04-25T00:52:12.408Z,23.67
2018-04-25T00:52:51.433Z,23.57
2018-04-25T00:53:51.393Z,23.62
2018-04-25T00:55:12.402Z,23.67
2018-04-25T00:55:51.404Z,23.60
2018-04-25T00:57:12.409Z,23.67
2018-04-25T00:57:51.394Z,23.64
2018-04-25T00:58:51.393Z,23.67
2018-04-25T01:00:12.414Z,23.62
2018-04-25T01:00:51.422Z,23.64
2018-04-25T01:02:12.404Z,23.59
2018-04-25T01:02:51.396Z,23.62
2018-04-25T01:03:51.367Z,23.64
2018-04-25T01:05:12.401Z,23.60
2018-04-25T01:05:51.367Z,23.62
2018-04-25T01:07:12.362Z,23.63
2018-04-25T01:07:51.368Z,23.59
2018-04-25T01:08:51.355Z,23.59
2018-04-25T01:10:12.370Z,23.62
2018-04-25T01:10:51.359Z,23.63
2018-04-25T01:12:12.335Z,23.59
2018-04-25T01:12:51.360Z,23.52
2018-04-25T01:13:51.318Z,23.59
2018-04-25T01:15:12.353Z,23.59
2018-04-25T01:15:51.332Z,23.59
2018-04-25T01:17:12.333Z,23.50
2018-04-25T01:17:51.300Z,23.60
2018-04-25T01:18:51.334Z,23.63
2018-04-25T01:20:12.335Z,23.56
2018-04-25T01:20:51.319Z,23.64
2018-04-25T01:22:12.314Z,23.60
2018-04-25T01:22:51.321Z,23.60
2018-04-25T01:23:51.297Z,23.60
2018-04-25T01:25:12.326Z,23.53
2018-04-25T01:25:51.287Z,23.60
2018-04-25T01:27:12.301Z,23.64
2018-04-25T01:27:51.318Z,23.63
2018-04-25T01:28:51.285Z,23.67
2018-04-25T01:30:12.292Z,23.63
2018-04-25T01:30:51.273Z,23.62
2018-04-25T01:32:12.274Z,23.57
2018-04-25T01:32:51.281Z,23.59
2018-04-25T01:33:51.250Z,23.54
2018-04-25T01:35:12.279Z,23.63
2018-04-25T01:35:51.310Z,23.67
2018-04-25T01:37:12.250Z,23.59
2018-04-25T01:37:51.269Z,23.62
2018-04-25T01:38:51.259Z,23.57
2018-04-25T01:40:12.239Z,23.59
2018-04-25T01:40:51.282Z,23.57
2018-04-25T01:42:12.241Z,23.44
2018-04-25T01:42:51.255Z,23.57
2018-04-25T01:43:51.219Z,23.54
2018-04-25T01:45:12.270Z,23.59
2018-04-25T01:45:51.214Z,23.56
2018-04-25T01:47:12.214Z,23.56
2018-04-25T01:47:51.214Z,23.52
2018-04-25T01:48:51.229Z,23.54
2018-04-25T01:50:12.259Z,23.54
2018-04-25T01:50:51.168Z,23.59
2018-04-25T01:52:12.230Z,23.56
2018-04-25T01:52:51.183Z,23.57
2018-04-25T01:53:51.195Z,23.53
2018-04-25T01:55:12.170Z,23.59
2018-04-25T01:55:51.203Z,23.53
2018-04-25T01:57:12.203Z,23.52
2018-04-25T01:57:51.218Z,23.62
2018-04-25T01:58:51.170Z,23.56
2018-04-25T02:00:12.183Z,23.50
2018-04-25T02:00:51.187Z,23.56
2018-04-25T02:02:12.176Z,23.59
2018-04-25T02:02:51.174Z,23.47
2018-04-25T02:03:51.166Z,23.53
2018-04-25T02:05:12.165Z,23.54
2018-04-25T02:05:51.156Z,23.50
2018-04-25T02:07:12.170Z,23.53
2018-04-25T02:07:51.153Z,23.52
2018-04-25T02:08:51.155Z,23.52
2018-04-25T02:10:12.143Z,23.59
2018-04-25T02:10:51.129Z,23.49
2018-04-25T02:12:12.150Z,23.50
2018-04-25T02:12:51.159Z,23.57
2018-04-25T02:13:51.117Z,23.50
2018-04-25T02:15:12.128Z,23.59
2018-04-25T02:15:51.149Z,23.56
2018-04-25T02:17:12.136Z,23.52
2018-04-25T02:17:51.126Z,23.49
2018-04-25T02:18:51.101Z,23.57
2018-04-25T02:20:12.114Z,23.53
2018-04-25T02:20:51.119Z,23.47
2018-04-25T02:22:12.103Z,23.50
2018-04-25T02:22:51.121Z,23.52
2018-04-25T02:23:51.083Z,23.50
2018-04-25T02:25:12.104Z,23.52
2018-04-25T02:25:51.071Z,23.44
2018-04-25T02:27:12.070Z,23.53
2018-04-25T02:27:51.113Z,23.47
2018-04-25T02:28:51.059Z,23.47
2018-04-25T02:30:12.087Z,23.53
2018-04-25T02:30:51.060Z,23.50
2018-04-25T02:32:12.075Z,23.44
2018-04-25T02:32:51.071Z,23.50
2018-04-25T02:33:51.053Z,23.47
2018-04-25T02:35:12.053Z,23.57
2018-04-25T02:35:51.046Z,23.45
2018-04-25T02:37:12.044Z,23.42
2018-04-25T02:37:51.040Z,23.49
2018-04-25T02:38:51.020Z,23.49
2018-04-25T02:40:12.025Z,23.45
2018-04-25T02:40:51.041Z,23.49
2018-04-25T02:42:12.032Z,23.47
2018-04-25T02:42:51.044Z,23.47
2018-04-25T02:43:51.018Z,23.53
2018-04-25T02:45:12.004Z,23.54
2018-04-25T02:45:50.990Z,23.52
2018-04-25T02:47:12.019Z,23.45
2018-04-25T02:47:51.013Z,23.50
2018-04-25T02:48:50.989Z,23.53
2018-04-25T02:50:11.970Z,23.47
2018-04-25T02:50:51.007Z,23.50
2018-04-25T02:52:11.982Z,23.49
2018-04-25T02:52:50.966Z,23.45
2018-04-25T02:53:50.968Z,23.50
2018-04-25T02:55:11.980Z,23.50
2018-04-25T02:55:50.976Z,23.50
2018-04-25T02:57:11.966Z,23.59
2018-04-25T02:57:50.956Z,23.49
2018-04-25T02:58:51.012Z,23.45
2018-04-25T03:00:11.982Z,23.45
2018-04-25T03:00:50.966Z,23.50
2018-04-25T03:02:11.967Z,23.47
2018-04-25T03:02:50.960Z,23.47
2018-04-25T03:03:50.933Z,23.50
2018-04-25T03:05:11.936Z,23.59
2018-04-25T03:05:50.936Z,23.50
2018-04-25T03:07:11.931Z,23.50
2018-04-25T03:07:50.910Z,23.49
2018-04-25T03:08:50.912Z,23.44
2018-04-25T03:10:11.915Z,23.45
2018-04-25T03:10:50.905Z,23.44
2018-04-25T03:12:11.922Z,23.47
2018-04-25T03:12:50.921Z,23.49
2018-04-25T03:13:50.892Z,23.49
2018-04-25T03:15:11.896Z,23.47
2018-04-25T03:15:50.880Z,23.45
2018-04-25T03:17:11.916Z,23.45
2018-04-25T03:17:50.876Z,23.49
2018-04-25T03:18:50.880Z,23.44
2018-04-25T03:20:11.895Z,23.45
2018-04-25T03:20:50.867Z,23.45
2018-04-25T03:22:11.881Z,23.49
2018-04-25T03:22:50.870Z,23.44
2018-04-25T03:23:50.885Z,23.44
2018-04-25T03:25:11.871Z,23.47
2018-04-25T03:25:50.835Z,23.49
2018-04-25T03:27:11.861Z,23.45
2018-04-25T03:27:50.847Z,23.45
2018-04-25T03:28:50.845Z,23.47
2018-04-25T03:30:11.845Z,23.45
2018-04-25T03:30:50.885Z,23.44
2018-04-25T03:32:11.871Z,23.42
2018-04-25T03:32:50.817Z,23.49
2018-04-25T03:33:50.842Z,23.49
2018-04-25T03:35:11.833Z,23.44
2018-04-25T03:35:50.823Z,23.45
2018-04-25T03:37:11.807Z,23.42
2018-04-25T03:37:50.838Z,23.47
2018-04-25T03:38:50.795Z,23.47
2018-04-25T03:40:11.820Z,23.50
2018-04-25T03:40:50.801Z,23.44
2018-04-25T03:42:11.807Z,23.47
2018-04-25T03:42:50.806Z,23.44
2018-04-25T03:43:50.783Z,23.47
2018-04-25T03:45:11.808Z,23.47
2018-04-25T03:45:50.768Z,23.41
2018-04-25T03:47:11.796Z,23.44
2018-04-25T03:47:50.785Z,23.44
2018-04-25T03:48:50.771Z,23.45
2018-04-25T03:50:11.790Z,23.41
2018-04-25T03:50:50.777Z,23.47
2018-04-25T03:52:11.771Z,23.44
2018-04-25T03:52:50.740Z,23.39
2018-04-25T03:53:50.751Z,23.38
2018-04-25T03:55:11.751Z,23.49
2018-04-25T03:55:50.737Z,23.41
2018-04-25T03:57:11.736Z,23.45
2018-04-25T03:57:50.768Z,23.52
2018-04-25T03:58:50.738Z,23.47
2018-04-25T04:00:11.762Z,23.44
2018-04-25T04:00:50.746Z,23.49
2018-04-25T04:02:11.722Z,23.49
2018-04-25T04:02:50.727Z,23.45
2018-04-25T04:03:50.705Z,23.45
2018-04-25T04:05:11.756Z,23.45
2018-04-25T04:05:50.736Z,23.44
2018-04-25T04:07:11.747Z,23.41
2018-04-25T04:07:50.697Z,23.47
2018-04-25T04:08:50.715Z,23.49
2018-04-25T04:10:11.716Z,23.47
2018-04-25T04:10:50.707Z,23.47
2018-04-25T04:12:11.690Z,23.47
2018-04-25T04:12:50.728Z,23.47
2018-04-25T04:13:50.693Z,23.50
2018-04-25T04:15:11.686Z,23.42
2018-04-25T04:15:50.662Z,23.45
2018-04-25T04:17:11.662Z,23.47
2018-04-25T04:17:50.641Z,23.47
2018-04-25T04:18:50.681Z,23.45
2018-04-25T04:20:11.628Z,23.44
2018-04-25T04:20:50.653Z,23.38
2018-04-25T04:22:11.657Z,23.49
2018-04-25T04:22:50.638Z,23.41
2018-04-25T04:23:50.617Z,23.45
2018-04-25T04:25:11.662Z,23.44
2018-04-25T04:25:50.622Z,23.44
2018-04-25T04:27:11.658Z,23.44
2018-04-25T04:27:50.602Z,23.38
2018-04-25T04:28:50.611Z,23.44
2018-04-25T04:30:11.627Z,23.45
2018-04-25T04:30:50.602Z,23.45
2018-04-25T04:32:11.648Z,23.44
2018-04-25T04:32:50.607Z,23.44
2018-04-25T04:33:50.621Z,23.41
2018-04-25T04:35:11.593Z,23.47
2018-04-25T04:35:50.623Z,23.42
2018-04-25T04:37:11.606Z,23.44
2018-04-25T04:37:50.597Z,23.47
2018-04-25T04:38:50.581Z,23.44
2018-04-25T04:40:11.577Z,23.49
2018-04-25T04:40:50.567Z,23.45
2018-04-25T04:42:11.581Z,23.49
2018-04-25T04:42:50.562Z,23.47
2018-04-25T04:43:50.544Z,23.42
2018-04-25T04:45:11.583Z,23.49
2018-04-25T04:45:50.592Z,23.41
2018-04-25T04:47:11.561Z,23.44
2018-04-25T04:47:50.583Z,23.49
2018-04-25T04:48:50.537Z,23.45
2018-04-25T04:50:11.548Z,23.47
2018-04-25T04:50:50.557Z,23.44
2018-04-25T04:52:11.581Z,23.47
2018-04-25T04:52:50.527Z,23.42
2018-04-25T04:53:50.529Z,23.42
2018-04-25T04:55:11.544Z,23.41
2018-04-25T04:55:50.527Z,23.41
2018-04-25T04:57:11.507Z,23.44
2018-04-25T04:57:50.520Z,23.45
2018-04-25T04:58:50.507Z,23.44
2018-04-25T05:00:11.541Z,23.45
2018-04-25T05:00:50.518Z,23.44
2018-04-25T05:02:11.512Z,23.47
2018-04-25T05:02:50.510Z,23.49
2018-04-25T05:03:50.472Z,23.47
2018-04-25T05:05:11.505Z,23.44
2018-04-25T05:05:50.498Z,23.50
2018-04-25T05:07:11.484Z,23.50
2018-04-25T05:07:50.459Z,23.49
2018-04-25T05:08:50.468Z,23.47
2018-04-25T05:10:11.489Z,23.42
2018-04-25T05:10:50.488Z,23.45
2018-04-25T05:12:11.528Z,23.44
2018-04-25T05:12:50.474Z,23.49
2018-04-25T05:13:50.463Z,23.49
2018-04-25T05:15:11.443Z,23.49
2018-04-25T05:15:50.450Z,23.47
2018-04-25T05:17:11.491Z,23.45
2018-04-25T05:17:50.469Z,23.47
2018-04-25T05:18:50.442Z,23.49
2018-04-25T05:20:11.479Z,23.44
2018-04-25T05:20:50.419Z,23.47
2018-04-25T05:22:11.464Z,23.45
2018-04-25T05:22:50.450Z,23.49
2018-04-25T05:23:50.439Z,23.45
2018-04-25T05:25:11.458Z,23.45
2018-04-25T05:25:50.438Z,23.50
2018-04-25T05:27:11.414Z,23.47
2018-04-25T05:27:50.403Z,23.53
2018-04-25T05:28:50.422Z,23.47
2018-04-25T05:30:11.430Z,23.45
2018-04-25T05:30:50.389Z,23.38
2018-04-25T05:32:11.520Z,23.44
2018-04-25T05:32:50.381Z,23.44
2018-04-25T05:33:50.370Z,23.45
2018-04-25T05:35:11.398Z,23.47
2018-04-25T05:35:50.390Z,23.44
2018-04-25T05:37:11.385Z,23.45
2018-04-25T05:37:50.349Z,23.49
2018-04-25T05:38:50.365Z,23.44
2018-04-25T05:40:11.421Z,23.47
2018-04-25T05:40:50.370Z,23.45
2018-04-25T05:42:11.370Z,23.47
2018-04-25T05:42:50.338Z,23.44
2018-04-25T05:43:50.328Z,23.49
2018-04-25T05:45:11.340Z,23.47
2018-04-25T05:45:50.352Z,23.42
2018-04-25T05:47:11.310Z,23.42
2018-04-25T05:47:50.343Z,23.47
2018-04-25T05:48:50.309Z,23.53
2018-04-25T05:50:11.350Z,23.53
2018-04-25T05:50:50.368Z,23.53
2018-04-25T05:52:11.318Z,23.50
2018-04-25T05:52:50.299Z,23.47
2018-04-25T05:53:50.320Z,23.47
2018-04-25T05:55:11.307Z,23.41
2018-04-25T05:55:50.296Z,23.45
2018-04-25T05:57:11.308Z,23.44
2018-04-25T05:57:50.427Z,23.45
2018-04-25T05:58:50.254Z,23.45
2018-04-25T06:00:11.278Z,23.45
2018-04-25T06:00:50.299Z,23.49
2018-04-25T06:02:11.303Z,23.45
2018-04-25T06:02:50.283Z,23.45
2018-04-25T06:03:50.283Z,23.47
2018-04-25T06:05:11.300Z,23.42
2018-04-25T06:05:50.289Z,23.54
2018-04-25T06:07:11.332Z,23.44
2018-04-25T06:07:50.280Z,23.47
2018-04-25T06:08:50.263Z,23.45
2018-04-25T06:10:11.264Z,23.44
2018-04-25T06:10:50.305Z,23.44
2018-04-25T06:12:11.259Z,23.49
2018-04-25T06:12:50.243Z,23.47
2018-04-25T06:13:50.269Z,23.53
2018-04-25T06:15:11.280Z,23.41
2018-04-25T06:15:50.234Z,23.42
2018-04-25T06:17:11.238Z,23.44
2018-04-25T06:17:50.224Z,23.49
2018-04-25T06:18:50.239Z,23.49
2018-04-25T06:20:11.251Z,23.42
2018-04-25T06:20:50.235Z,23.47
2018-04-25T06:22:11.253Z,23.49
2018-04-25T06:22:50.210Z,23.47
2018-04-25T06:23:50.197Z,23.42
2018-04-25T06:25:11.229Z,23.42
2018-04-25T06:25:50.204Z,23.49
2018-04-25T06:27:11.199Z,23.45
2018-04-25T06:27:50.218Z,23.44
2018-04-25T06:28:50.184Z,23.42
2018-04-25T06:30:11.209Z,23.47
2018-04-25T06:30:50.161Z,23.44
2018-04-25T06:32:11.200Z,23.50
2018-04-25T06:32:50.242Z,23.47
2018-04-25T06:33:50.182Z,23.49
2018-04-25T06:35:11.145Z,23.44
2018-04-25T06:35:50.201Z,23.44
2018-04-25T06:37:11.154Z,23.45
2018-04-25T06:37:50.145Z,23.49
2018-04-25T06:38:50.160Z,23.41
2018-04-25T06:40:11.175Z,23.53
2018-04-25T06:40:50.143Z,23.44
2018-04-25T06:42:11.146Z,23.41
2018-04-25T06:42:50.131Z,23.42
2018-04-25T06:43:50.140Z,23.45
2018-04-25T06:45:11.136Z,23.42
2018-04-25T06:45:50.125Z,23.47
2018-04-25T06:47:11.122Z,23.42
2018-04-25T06:47:50.117Z,23.45
2018-04-25T06:48:50.145Z,23.44
2018-04-25T06:50:11.116Z,23.44
2018-04-25T06:50:50.111Z,23.49
2018-04-25T06:52:11.130Z,23.44
2018-04-25T06:52:50.119Z,23.41
2018-04-25T06:53:50.065Z,23.45
2018-04-25T06:55:11.103Z,23.42
2018-04-25T06:55:50.070Z,23.42
2018-04-25T06:57:11.101Z,23.44
2018-04-25T06:57:50.069Z,23.47
2018-04-25T06:58:50.054Z,23.44
2018-04-25T07:00:11.055Z,23.45
2018-04-25T07:00:50.057Z,23.45
2018-04-25T07:02:11.084Z,23.44
2018-04-25T07:02:50.053Z,23.45
2018-04-25T07:03:50.075Z,23.44
2018-04-25T07:05:11.063Z,23.47
2018-04-25T07:05:50.090Z,23.44
2018-04-25T07:07:11.093Z,23.47
2018-04-25T07:07:50.098Z,23.44
2018-04-25T07:08:50.036Z,23.47
2018-04-25T07:10:11.024Z,23.45
2018-04-25T07:10:50.030Z,23.52
2018-04-25T07:12:11.044Z,23.45
2018-04-25T07:12:50.051Z,23.41
2018-04-25T07:13:50.041Z,23.47
2018-04-25T07:15:11.024Z,23.47
2018-04-25T07:15:50.045Z,23.44
2018-04-25T07:17:11.079Z,23.47
2018-04-25T07:17:49.990Z,23.42
2018-04-25T07:18:50.030Z,23.47
2018-04-25T07:20:10.985Z,23.39
2018-04-25T07:20:50.005Z,23.45
2018-04-25T07:22:11.000Z,23.37
2018-04-25T07:22:49.959Z,23.47
2018-04-25T07:23:50.077Z,23.41
2018-04-25T07:25:10.981Z,23.42
2018-04-25T07:25:49.969Z,23.41
2018-04-25T07:27:10.979Z,23.44
2018-04-25T07:27:49.959Z,23.38
2018-04-25T07:28:49.961Z,23.42
2018-04-25T07:30:10.967Z,23.44
2018-04-25T07:30:49.937Z,23.45
2018-04-25T07:32:10.967Z,23.47
2018-04-25T07:32:49.947Z,23.42
2018-04-25T07:33:49.950Z,23.42
2018-04-25T07:35:10.965Z,23.47
2018-04-25T07:35:49.926Z,23.39
2018-04-25T07:37:10.952Z,23.45
2018-04-25T07:37:49.936Z,23.45
2018-04-25T07:38:49.939Z,23.47
2018-04-25T07:40:10.972Z,23.47
2018-04-25T07:40:49.917Z,23.41
2018-04-25T07:42:10.931Z,23.44
2018-04-25T07:42:49.966Z,23.50
2018-04-25T07:43:49.913Z,23.57
2018-04-25T07:45:10.905Z,23.45
2018-04-25T07:45:49.896Z,23.52
2018-04-25T07:47:10.918Z,23.56
2018-04-25T07:47:49.892Z,23.53
2018-04-25T07:48:49.881Z,23.54
2018-04-25T07:50:10.935Z,23.57
2018-04-25T07:50:49.926Z,23.50
2018-04-25T07:52:10.920Z,23.57
2018-04-25T07:52:49.907Z,23.57
2018-04-25T07:53:49.892Z,23.52
2018-04-25T07:55:10.912Z,23.57
2018-04-25T07:55:49.867Z,23.63
2018-04-25T07:57:10.873Z,23.67
2018-04-25T07:57:49.885Z,23.63
2018-04-25T07:58:49.911Z,23.68
2018-04-25T08:00:10.883Z,23.69
2018-04-25T08:00:49.840Z,23.71
2018-04-25T08:02:10.854Z,23.68
2018-04-25T08:02:49.835Z,23.63
2018-04-25T08:03:49.836Z,23.71
2018-04-25T08:05:10.846Z,23.56
2018-04-25T08:05:49.821Z,23.59
2018-04-25T08:07:10.826Z,23.64
2018-04-25T08:07:49.812Z,23.64
2018-04-25T08:08:49.806Z,23.59
2018-04-25T08:10:10.803Z,23.60
2018-04-25T08:10:49.823Z,23.74
2018-04-25T08:12:10.808Z,23.62
2018-04-25T08:12:49.836Z,23.64
2018-04-25T08:13:49.792Z,23.72
2018-04-25T08:15:10.785Z,23.74
2018-04-25T08:15:49.774Z,23.86
2018-04-25T08:17:10.798Z,23.90
2018-04-25T08:17:49.842Z,23.84
2018-04-25T08:18:49.821Z,23.86
2018-04-25T08:20:10.776Z,23.93
2018-04-25T08:20:49.777Z,23.84
2018-04-25T08:22:10.832Z,23.90
2018-04-25T08:22:49.761Z,23.87
2018-04-25T08:23:49.837Z,23.77
2018-04-25T08:25:10.748Z,23.86
2018-04-25T08:25:49.756Z,23.74
2018-04-25T08:27:10.769Z,23.74
2018-04-25T08:27:49.758Z,23.75
2018-04-25T08:28:49.738Z,23.74
2018-04-25T08:30:10.782Z,23.75
2018-04-25T08:30:49.716Z,23.75
2018-04-25T08:32:10.755Z,23.74
2018-04-25T08:32:49.742Z,23.81
2018-04-25T08:33:49.742Z,23.78
2018-04-25T08:35:10.734Z,23.75
2018-04-25T08:35:49.707Z,23.74
2018-04-25T08:37:10.731Z,23.69
2018-04-25T08:37:49.698Z,23.67
2018-04-25T08:38:49.708Z,23.71
2018-04-25T08:40:10.734Z,23.69
2018-04-25T08:40:49.677Z,23.72
2018-04-25T08:42:10.710Z,23.67
2018-04-25T08:42:49.705Z,23.68
2018-04-25T08:43:49.729Z,23.67
2018-04-25T08:45:10.715Z,23.75
2018-04-25T08:45:49.677Z,23.74
2018-04-25T08:47:10.693Z,23.84
2018-04-25T08:47:49.706Z,23.82
2018-04-25T08:48:49.668Z,23.84
2018-04-25T08:50:10.647Z,23.87
2018-04-25T08:50:49.667Z,23.87
2018-04-25T08:52:10.653Z,23.97
2018-04-25T08:52:49.672Z,23.96
2018-04-25T08:53:49.657Z,24.05
2018-04-25T08:55:10.662Z,24.04
2018-04-25T08:55:49.640Z,23.97
2018-04-25T08:57:10.693Z,24.00
2018-04-25T08:57:49.633Z,24.00
2018-04-25T08:58:49.656Z,24.02
2018-04-25T09:00:10.656Z,24.02
2018-04-25T09:00:49.610Z,24.05
2018-04-25T09:02:10.637Z,24.06
2018-04-25T09:02:49.592Z,24.11
2018-04-25T09:03:49.585Z,24.00
2018-04-25T09:05:10.662Z,24.00
2018-04-25T09:05:49.620Z,24.11
2018-04-25T09:07:10.608Z,24.15
2018-04-25T09:07:49.627Z,24.21
2018-04-25T09:08:49.603Z,24.21
2018-04-25T09:10:10.613Z,24.16
2018-04-25T09:10:49.564Z,24.11
2018-04-25T09:12:10.590Z,24.11
2018-04-25T09:12:49.577Z,24.18
2018-04-25T09:13:49.599Z,24.15
2018-04-25T09:15:10.585Z,24.16
2018-04-25T09:15:49.567Z,24.21
2018-04-25T09:17:10.581Z,24.09
2018-04-25T09:17:49.569Z,24.14
2018-04-25T09:18:49.579Z,24.15
2018-04-25T09:20:10.543Z,24.08
2018-04-25T09:20:49.536Z,24.08
2018-04-25T09:22:10.549Z,24.08
2018-04-25T09:22:49.547Z,24.09
2018-04-25T09:23:49.537Z,24.15
2018-04-25T09:25:10.533Z,24.29
2018-04-25T09:25:49.521Z,24.09
2018-04-25T09:27:10.526Z,24.16
2018-04-25T09:27:49.518Z,24.18
2018-04-25T09:28:49.513Z,24.21
2018-04-25T09:30:10.574Z,24.21
2018-04-25T09:30:49.517Z,24.18
2018-04-25T09:32:10.536Z,24.26
2018-04-25T09:32:49.540Z,24.23
2018-04-25T09:33:49.514Z,24.24
2018-04-25T09:35:10.534Z,24.23
2018-04-25T09:35:49.513Z,24.26
2018-04-25T09:37:10.484Z,24.18
2018-04-25T09:37:49.491Z,24.24
2018-04-25T09:38:49.493Z,24.16
2018-04-25T09:40:10.501Z,24.16
2018-04-25T09:40:49.487Z,24.12
2018-04-25T09:42:10.488Z,24.18
2018-04-25T09:42:49.503Z,24.24
2018-04-25T09:43:49.498Z,24.21
2018-04-25T09:45:10.503Z,24.08
2018-04-25T09:45:49.477Z,24.11
2018-04-25T09:47:10.489Z,24.04
2018-04-25T09:47:49.516Z,24.11
2018-04-25T09:48:49.488Z,24.12
2018-04-25T09:50:10.489Z,24.02
2018-04-25T09:50:49.436Z,24.06
2018-04-25T09:52:10.478Z,24.02
2018-04-25T09:52:49.469Z,24.05
2018-04-25T09:53:49.471Z,24.02
2018-04-25T09:55:10.430Z,23.97
2018-04-25T09:55:49.434Z,23.99
2018-04-25T09:57:10.489Z,24.00
2018-04-25T09:57:49.510Z,24.02
2018-04-25T09:58:49.432Z,24.02
2018-04-25T10:00:10.434Z,24.04
2018-04-25T10:00:49.393Z,23.99
2018-04-25T10:02:10.433Z,24.09
2018-04-25T10:02:49.402Z,24.11
2018-04-25T10:03:49.427Z,24.12
2018-04-25T10:05:10.514Z,24.06
2018-04-25T10:05:49.390Z,24.09
2018-04-25T10:07:10.409Z,23.99
2018-04-25T10:07:49.364Z,23.96
2018-04-25T10:08:49.390Z,23.96
2018-04-25T10:10:10.388Z,23.97
2018-04-25T10:10:49.406Z,24.02
2018-04-25T10:12:10.405Z,24.02
2018-04-25T10:12:49.371Z,24.09
2018-04-25T10:13:49.384Z,24.05
2018-04-25T10:15:10.496Z,24.08
2018-04-25T10:15:49.360Z,24.11
2018-04-25T10:17:10.430Z,23.99
2018-04-25T10:17:49.385Z,24.06
2018-04-25T10:18:49.338Z,24.14
2018-04-25T10:20:10.340Z,24.14
2018-04-25T10:20:49.346Z,24.19
2018-04-25T10:22:10.395Z,24.16
2018-04-25T10:22:49.336Z,24.09
2018-04-25T10:23:49.367Z,23.99
2018-04-25T10:25:10.332Z,24.06
2018-04-25T10:25:49.310Z,23.99
2018-04-25T10:27:10.363Z,24.05
2018-04-25T10:27:49.315Z,24.12
2018-04-25T10:28:49.355Z,24.11
2018-04-25T10:30:10.311Z,24.08
2018-04-25T10:30:49.299Z,24.09
2018-04-25T10:32:10.305Z,24.16
2018-04-25T10:32:49.299Z,24.02
2018-04-25T10:33:49.325Z,24.09
2018-04-25T10:35:10.326Z,24.06
2018-04-25T10:35:49.299Z,24.06
2018-04-25T10:37:10.292Z,24.04
2018-04-25T10:37:49.305Z,23.99
2018-04-25T10:38:49.386Z,23.99
2018-04-25T10:40:10.321Z,24.05
2018-04-25T10:40:49.315Z,23.93
2018-04-25T10:42:10.242Z,23.97
2018-04-25T10:42:49.294Z,23.93
2018-04-25T10:43:49.247Z,23.93
2018-04-25T10:45:10.283Z,23.93
2018-04-25T10:45:49.266Z,23.96
2018-04-25T10:47:10.267Z,23.96
2018-04-25T10:47:49.252Z,23.93
2018-04-25T10:48:49.241Z,23.96
2018-04-25T10:50:10.253Z,23.97
2018-04-25T10:50:49.230Z,23.92
2018-04-25T10:52:10.244Z,23.92
2018-04-25T10:52:49.183Z,23.92
2018-04-25T10:53:49.235Z,23.90
2018-04-25T10:55:10.260Z,23.99
2018-04-25T10:55:49.255Z,23.97
2018-04-25T10:57:10.251Z,23.92
2018-04-25T10:57:49.214Z,23.94
2018-04-25T10:58:49.225Z,23.97
2018-04-25T11:00:10.235Z,23.92
2018-04-25T11:00:49.213Z,23.96
2018-04-25T11:02:10.234Z,23.94
2018-04-25T11:02:49.184Z,23.93
2018-04-25T11:03:49.216Z,23.89
2018-04-25T11:05:10.266Z,23.86
2018-04-25T11:05:49.196Z,23.87
2018-04-25T11:07:10.241Z,23.84
2018-04-25T11:07:49.191Z,23.86
2018-04-25T11:08:49.212Z,23.82
2018-04-25T11:10:10.165Z,23.86
2018-04-25T11:10:49.187Z,23.87
2018-04-25T11:12:10.178Z,23.86
2018-04-25T11:12:49.154Z,23.93
2018-04-25T11:13:49.175Z,23.96
2018-04-25T11:15:10.212Z,23.96
2018-04-25T11:15:49.181Z,23.93
2018-04-25T11:17:10.164Z,24.00
2018-04-25T11:17:49.160Z,23.99
2018-04-25T11:18:49.209Z,24.02
2018-04-25T11:20:10.171Z,24.05
2018-04-25T11:20:49.150Z,24.11
2018-04-25T11:22:10.149Z,24.08
2018-04-25T11:22:49.121Z,24.08
2018-04-25T11:23:49.184Z,24.02
2018-04-25T11:25:10.176Z,24.02
2018-04-25T11:25:49.147Z,24.08
2018-04-25T11:27:10.152Z,24.12
2018-04-25T11:27:49.113Z,24.08
2018-04-25T11:28:49.091Z,24.04
2018-04-25T11:30:10.119Z,24.04
2018-04-25T11:30:49.070Z,24.02
2018-04-25T11:32:10.131Z,24.11
2018-04-25T11:32:49.119Z,24.06
2018-04-25T11:33:49.125Z,24.06
2018-04-25T11:35:10.093Z,24.08
2018-04-25T11:35:49.106Z,24.04
2018-04-25T11:37:10.107Z,24.00
2018-04-25T11:37:49.060Z,24.02
2018-04-25T11:38:49.099Z,23.97
2018-04-25T11:40:10.123Z,23.97
2018-04-25T11:40:49.067Z,23.99
2018-04-25T11:42:10.079Z,23.97
2018-04-25T11:42:49.050Z,23.97
2018-04-25T11:43:49.095Z,23.97
2018-04-25T11:45:10.113Z,23.93
2018-04-25T11:45:49.091Z,24.00
2018-04-25T11:47:10.114Z,23.90
2018-04-25T11:47:49.052Z,23.93
2018-04-25T11:48:49.022Z,23.96
2018-04-25T11:50:10.066Z,23.93
2018-04-25T11:50:49.020Z,23.81
2018-04-25T11:52:10.020Z,23.94
2018-04-25T11:52:49.095Z,23.93
2018-04-25T11:53:49.074Z,23.93
2018-04-25T11:55:10.059Z,23.94
2018-04-25T11:55:49.017Z,23.97
2018-04-25T11:57:10.058Z,23.97
2018-04-25T11:57:49.025Z,24.02
2018-04-25T11:58:49.010Z,24.04
2018-04-25T12:00:10.026Z,24.04
2018-04-25T12:00:48.981Z,24.00
2018-04-25T12:02:09.989Z,24.00
2018-04-25T12:02:49.009Z,23.96
2018-04-25T12:03:49.005Z,23.96
2018-04-25T12:05:10.052Z,23.93
2018-04-25T12:05:49.002Z,23.96
2018-04-25T12:07:09.966Z,23.99
2018-04-25T12:07:48.973Z,23.97
2018-04-25T12:08:49.001Z,24.04
2018-04-25T12:10:09.981Z,24.00
2018-04-25T12:10:48.964Z,23.96
2018-04-25T12:12:10.051Z,23.96
2018-04-25T12:12:48.961Z,23.97
2018-04-25T12:13:48.980Z,23.93
2018-04-25T12:15:09.992Z,24.02
2018-04-25T12:15:48.991Z,23.96
2018-04-25T12:17:09.995Z,23.96
2018-04-25T12:17:48.976Z,24.00
2018-04-25T12:18:48.980Z,23.97
2018-04-25T12:20:09.975Z,23.94
2018-04-25T12:20:48.935Z,23.96
2018-04-25T12:22:09.941Z,23.87
2018-04-25T12:22:48.943Z,23.90
2018-04-25T12:23:48.987Z,23.97
2018-04-25T12:25:09.938Z,23.96
2018-04-25T12:25:48.958Z,23.94
2018-04-25T12:27:09.938Z,23.93
2018-04-25T12:27:48.919Z,23.94
2018-04-25T12:28:48.894Z,23.82
2018-04-25T12:30:09.947Z,23.94
2018-04-25T12:30:48.921Z,23.82
2018-04-25T12:32:09.914Z,23.90
2018-04-25T12:32:48.930Z,23.84
2018-04-25T12:33:48.902Z,23.90
2018-04-25T12:35:09.911Z,23.81
2018-04-25T12:35:48.976Z,23.81
2018-04-25T12:37:09.889Z,23.96
2018-04-25T12:37:48.889Z,23.92
2018-04-25T12:38:48.866Z,23.89
2018-04-25T12:40:09.882Z,23.86
2018-04-25T12:40:48.867Z,23.97
2018-04-25T12:42:09.896Z,23.86
2018-04-25T12:42:48.860Z,23.82
2018-04-25T12:43:48.884Z,23.86
2018-04-25T12:45:09.868Z,23.92
2018-04-25T12:45:48.870Z,23.89
2018-04-25T12:47:09.981Z,23.90
2018-04-25T12:47:48.815Z,23.89
2018-04-25T12:48:48.851Z,23.82
2018-04-25T12:50:09.850Z,23.84
2018-04-25T12:50:48.887Z,23.86
2018-04-25T12:52:09.841Z,23.82